sensor_id;sensor_type;location;lat;lon;timestamp;temperature;humidity
12769;DHT22;6448;48.916;8.990;2022-10-03T00:01:08;18.00;64.20
12769;DHT22;6448;48.916;8.990;2022-10-03T00:02:22;18.00;64.20
12769;DHT22;6448;48.916;8.990;2022-10-03T00:03:33;18.30;64.30
12769;DHT22;6448;48.916;8.990;2022-10-03T00:04:52;18.00;64.10
12769;DHT22;6448;48.916;8.990;2022-10-03T00:06:08;18.00;64.10
12769;DHT22;6448;48.916;8.990;2022-10-03T00:07:21;18.00;64.00
12769;DHT22;6448;48.916;8.990;2022-10-03T00:08:42;18.20;64.10
12769;DHT22;6448;48.916;8.990;2022-10-03T00:09:56;18.00;64.00
12769;DHT22;6448;48.916;8.990;2022-10-03T00:11:06;18.10;64.00
12769;DHT22;6448;48.916;8.990;2022-10-03T00:12:16;18.00;64.00
12769;DHT22;6448;48.916;8.990;2022-10-03T00:13:23;17.90;64.00
12769;DHT22;6448;48.916;8.990;2022-10-03T00:14:32;18.00;64.10
12769;DHT22;6448;48.916;8.990;2022-10-03T00:15:40;17.90;64.10
12769;DHT22;6448;48.916;8.990;2022-10-03T00:16:48;17.70;64.00
12769;DHT22;6448;48.916;8.990;2022-10-03T00:18:02;17.80;64.20
12769;DHT22;6448;48.916;8.990;2022-10-03T00:19:11;17.90;64.30
12769;DHT22;6448;48.916;8.990;2022-10-03T00:20:39;17.80;64.30
12769;DHT22;6448;48.916;8.990;2022-10-03T00:21:51;17.80;64.30
12769;DHT22;6448;48.916;8.990;2022-10-03T00:22:58;17.80;64.40
12769;DHT22;6448;48.916;8.990;2022-10-03T00:24:12;17.80;64.40
12769;DHT22;6448;48.916;8.990;2022-10-03T00:25:26;17.80;64.50
12769;DHT22;6448;48.916;8.990;2022-10-03T00:26:39;18.00;64.60
12769;DHT22;6448;48.916;8.990;2022-10-03T00:27:46;17.60;64.40
12769;DHT22;6448;48.916;8.990;2022-10-03T00:28:57;17.90;64.60
12769;DHT22;6448;48.916;8.990;2022-10-03T00:30:11;17.70;64.60
12769;DHT22;6448;48.916;8.990;2022-10-03T00:31:17;18.00;64.90
12769;DHT22;6448;48.916;8.990;2022-10-03T00:32:36;17.60;64.70
12769;DHT22;6448;48.916;8.990;2022-10-03T00:33:53;17.70;64.80
12769;DHT22;6448;48.916;8.990;2022-10-03T00:35:04;17.60;64.70
12769;DHT22;6448;48.916;8.990;2022-10-03T00:36:23;17.60;64.80
12769;DHT22;6448;48.916;8.990;2022-10-03T00:37:30;17.70;65.00
12769;DHT22;6448;48.916;8.990;2022-10-03T00:38:56;17.60;64.90
12769;DHT22;6448;48.916;8.990;2022-10-03T00:40:29;17.70;65.10
12769;DHT22;6448;48.916;8.990;2022-10-03T00:42:05;17.60;65.00
12769;DHT22;6448;48.916;8.990;2022-10-03T00:43:50;17.60;65.20
12769;DHT22;6448;48.916;8.990;2022-10-03T00:46:54;17.50;65.20
12769;DHT22;6448;48.916;8.990;2022-10-03T00:50:18;17.60;65.30
12769;DHT22;6448;48.916;8.990;2022-10-03T00:51:37;17.60;65.30
12769;DHT22;6448;48.916;8.990;2022-10-03T00:52:58;17.60;65.30
12769;DHT22;6448;48.916;8.990;2022-10-03T00:55:46;17.60;65.30
12769;DHT22;6448;48.916;8.990;2022-10-03T00:57:00;17.90;65.60
12769;DHT22;6448;48.916;8.990;2022-10-03T00:58:27;17.60;65.30
12769;DHT22;6448;48.916;8.990;2022-10-03T00:59:41;17.60;65.30
12769;DHT22;6448;48.916;8.990;2022-10-03T01:00:49;17.80;65.40
12769;DHT22;6448;48.916;8.990;2022-10-03T01:01:51;17.60;65.20
12769;DHT22;6448;48.916;8.990;2022-10-03T01:03:14;17.60;65.20
12769;DHT22;6448;48.916;8.990;2022-10-03T01:04:46;17.60;65.20
12769;DHT22;6448;48.916;8.990;2022-10-03T01:06:05;17.60;65.00
12769;DHT22;6448;48.916;8.990;2022-10-03T01:07:23;17.60;65.10
12769;DHT22;6448;48.916;8.990;2022-10-03T01:08:44;17.60;65.00
12769;DHT22;6448;48.916;8.990;2022-10-03T01:09:58;17.60;65.00
12769;DHT22;6448;48.916;8.990;2022-10-03T01:11:08;17.60;64.90
12769;DHT22;6448;48.916;8.990;2022-10-03T01:12:24;17.80;65.00
12769;DHT22;6448;48.916;8.990;2022-10-03T01:13:37;17.70;64.90
12769;DHT22;6448;48.916;8.990;2022-10-03T01:14:54;17.60;64.70
12769;DHT22;6448;48.916;8.990;2022-10-03T01:16:10;17.80;64.90
12769;DHT22;6448;48.916;8.990;2022-10-03T01:17:22;17.60;64.70
12769;DHT22;6448;48.916;8.990;2022-10-03T01:18:34;17.70;64.70
12769;DHT22;6448;48.916;8.990;2022-10-03T01:20:02;17.70;64.90
12769;DHT22;6448;48.916;8.990;2022-10-03T01:21:13;17.70;64.90
12769;DHT22;6448;48.916;8.990;2022-10-03T01:22:36;18.00;65.00
12769;DHT22;6448;48.916;8.990;2022-10-03T01:25:12;17.60;64.80
12769;DHT22;6448;48.916;8.990;2022-10-03T01:26:31;17.70;64.90
12769;DHT22;6448;48.916;8.990;2022-10-03T01:27:44;17.70;65.70
12769;DHT22;6448;48.916;8.990;2022-10-03T01:29:08;17.60;65.60
12769;DHT22;6448;48.916;8.990;2022-10-03T01:30:35;17.60;64.90
12769;DHT22;6448;48.916;8.990;2022-10-03T01:31:43;17.90;65.10
12769;DHT22;6448;48.916;8.990;2022-10-03T01:32:55;17.70;65.00
12769;DHT22;6448;48.916;8.990;2022-10-03T01:34:02;17.70;65.00
12769;DHT22;6448;48.916;8.990;2022-10-03T01:35:14;17.70;64.90
12769;DHT22;6448;48.916;8.990;2022-10-03T01:36:26;17.70;64.90
12769;DHT22;6448;48.916;8.990;2022-10-03T01:37:35;17.70;64.70
12769;DHT22;6448;48.916;8.990;2022-10-03T01:38:43;17.80;64.70
12769;DHT22;6448;48.916;8.990;2022-10-03T01:39:49;17.80;64.60
12769;DHT22;6448;48.916;8.990;2022-10-03T01:40:57;17.50;64.40
12769;DHT22;6448;48.916;8.990;2022-10-03T01:42:05;17.80;64.60
12769;DHT22;6448;48.916;8.990;2022-10-03T01:43:15;17.70;64.50
12769;DHT22;6448;48.916;8.990;2022-10-03T01:44:27;17.70;64.50
12769;DHT22;6448;48.916;8.990;2022-10-03T01:45:40;17.80;64.60
12769;DHT22;6448;48.916;8.990;2022-10-03T01:46:48;18.10;64.70
12769;DHT22;6448;48.916;8.990;2022-10-03T01:47:58;17.70;64.50
12769;DHT22;6448;48.916;8.990;2022-10-03T01:49:08;17.80;64.50
12769;DHT22;6448;48.916;8.990;2022-10-03T01:50:18;17.50;64.30
12769;DHT22;6448;48.916;8.990;2022-10-03T01:51:32;17.80;64.50
12769;DHT22;6448;48.916;8.990;2022-10-03T01:52:40;17.80;64.30
12769;DHT22;6448;48.916;8.990;2022-10-03T01:54:00;17.80;64.30
12769;DHT22;6448;48.916;8.990;2022-10-03T01:55:10;17.80;64.40
12769;DHT22;6448;48.916;8.990;2022-10-03T01:56:20;17.80;64.30
12769;DHT22;6448;48.916;8.990;2022-10-03T01:57:36;17.80;64.30
12769;DHT22;6448;48.916;8.990;2022-10-03T01:58:52;17.80;64.20
12769;DHT22;6448;48.916;8.990;2022-10-03T02:00:04;17.70;64.30
12769;DHT22;6448;48.916;8.990;2022-10-03T02:01:23;17.80;64.50
12769;DHT22;6448;48.916;8.990;2022-10-03T02:02:34;17.80;64.30
12769;DHT22;6448;48.916;8.990;2022-10-03T02:03:47;17.80;64.40
12769;DHT22;6448;48.916;8.990;2022-10-03T02:05:02;18.00;64.50
12769;DHT22;6448;48.916;8.990;2022-10-03T02:06:10;17.80;64.50
12769;DHT22;6448;48.916;8.990;2022-10-03T02:07:24;17.90;64.50
12769;DHT22;6448;48.916;8.990;2022-10-03T02:08:43;17.90;64.30
12769;DHT22;6448;48.916;8.990;2022-10-03T02:09:57;17.80;64.30
12769;DHT22;6448;48.916;8.990;2022-10-03T02:11:03;18.00;64.40
12769;DHT22;6448;48.916;8.990;2022-10-03T02:12:10;17.90;64.20
12769;DHT22;6448;48.916;8.990;2022-10-03T02:13:17;17.80;64.20
12769;DHT22;6448;48.916;8.990;2022-10-03T02:14:28;17.90;64.30
12769;DHT22;6448;48.916;8.990;2022-10-03T02:15:43;18.00;64.30
12769;DHT22;6448;48.916;8.990;2022-10-03T02:16:55;17.70;64.10
12769;DHT22;6448;48.916;8.990;2022-10-03T02:18:10;18.00;64.30
12769;DHT22;6448;48.916;8.990;2022-10-03T02:19:18;17.90;64.20
12769;DHT22;6448;48.916;8.990;2022-10-03T02:20:26;18.10;64.40
12769;DHT22;6448;48.916;8.990;2022-10-03T02:21:30;17.90;64.20
12769;DHT22;6448;48.916;8.990;2022-10-03T02:22:37;17.90;64.20
12769;DHT22;6448;48.916;8.990;2022-10-03T02:23:43;18.10;64.20
12769;DHT22;6448;48.916;8.990;2022-10-03T02:24:49;17.90;64.10
12769;DHT22;6448;48.916;8.990;2022-10-03T02:26:02;18.00;64.10
12769;DHT22;6448;48.916;8.990;2022-10-03T02:27:34;18.00;64.00
12769;DHT22;6448;48.916;8.990;2022-10-03T02:28:53;18.00;63.90
12769;DHT22;6448;48.916;8.990;2022-10-03T02:30:08;18.00;63.80
12769;DHT22;6448;48.916;8.990;2022-10-03T02:35:00;17.90;63.60
12769;DHT22;6448;48.916;8.990;2022-10-03T02:36:47;17.90;63.70
12769;DHT22;6448;48.916;8.990;2022-10-03T02:40:17;17.90;63.70
12769;DHT22;6448;48.916;8.990;2022-10-03T02:41:45;17.90;63.70
12769;DHT22;6448;48.916;8.990;2022-10-03T02:43:30;17.90;63.70
12769;DHT22;6448;48.916;8.990;2022-10-03T02:45:06;17.90;63.70
12769;DHT22;6448;48.916;8.990;2022-10-03T02:46:35;17.90;63.70
12769;DHT22;6448;48.916;8.990;2022-10-03T02:48:07;17.90;63.70
12769;DHT22;6448;48.916;8.990;2022-10-03T02:49:35;17.90;63.60
12769;DHT22;6448;48.916;8.990;2022-10-03T02:53:59;17.90;63.00
12769;DHT22;6448;48.916;8.990;2022-10-03T02:55:26;17.90;62.80
12769;DHT22;6448;48.916;8.990;2022-10-03T02:58:44;17.90;62.70
12769;DHT22;6448;48.916;8.990;2022-10-03T03:00:08;17.80;62.70
12769;DHT22;6448;48.916;8.990;2022-10-03T03:03:07;17.90;62.80
12769;DHT22;6448;48.916;8.990;2022-10-03T03:04:55;17.80;62.70
12769;DHT22;6448;48.916;8.990;2022-10-03T03:06:25;17.80;62.80
12769;DHT22;6448;48.916;8.990;2022-10-03T03:07:38;17.80;62.80
12769;DHT22;6448;48.916;8.990;2022-10-03T03:09:17;17.90;62.90
12769;DHT22;6448;48.916;8.990;2022-10-03T03:10:37;17.80;62.90
12769;DHT22;6448;48.916;8.990;2022-10-03T03:18:08;17.90;62.90
12769;DHT22;6448;48.916;8.990;2022-10-03T03:21:00;17.80;62.90
12769;DHT22;6448;48.916;8.990;2022-10-03T03:22:14;17.80;62.80
12769;DHT22;6448;48.916;8.990;2022-10-03T03:23:39;18.10;63.00
12769;DHT22;6448;48.916;8.990;2022-10-03T03:25:04;17.80;62.80
12769;DHT22;6448;48.916;8.990;2022-10-03T03:26:25;17.80;62.80
12769;DHT22;6448;48.916;8.990;2022-10-03T03:27:41;17.80;62.80
12769;DHT22;6448;48.916;8.990;2022-10-03T03:28:50;17.80;62.80
12769;DHT22;6448;48.916;8.990;2022-10-03T03:30:00;17.80;62.80
12769;DHT22;6448;48.916;8.990;2022-10-03T03:31:08;17.80;62.80
12769;DHT22;6448;48.916;8.990;2022-10-03T03:32:18;18.10;63.70
12769;DHT22;6448;48.916;8.990;2022-10-03T03:33:34;17.80;62.80
12769;DHT22;6448;48.916;8.990;2022-10-03T03:34:43;17.80;62.70
12769;DHT22;6448;48.916;8.990;2022-10-03T03:35:57;17.80;62.70
12769;DHT22;6448;48.916;8.990;2022-10-03T03:37:03;17.80;62.70
12769;DHT22;6448;48.916;8.990;2022-10-03T03:38:19;18.10;62.90
12769;DHT22;6448;48.916;8.990;2022-10-03T03:41:01;17.80;62.80
12769;DHT22;6448;48.916;8.990;2022-10-03T03:42:29;17.80;62.80
12769;DHT22;6448;48.916;8.990;2022-10-03T03:43:52;17.80;62.70
12769;DHT22;6448;48.916;8.990;2022-10-03T03:45:32;17.80;62.80
12769;DHT22;6448;48.916;8.990;2022-10-03T03:46:49;17.80;62.80
12769;DHT22;6448;48.916;8.990;2022-10-03T03:49:40;17.80;62.80
12769;DHT22;6448;48.916;8.990;2022-10-03T03:50:55;17.90;62.80
12769;DHT22;6448;48.916;8.990;2022-10-03T03:52:14;17.80;62.80
12769;DHT22;6448;48.916;8.990;2022-10-03T03:53:32;17.80;62.80
12769;DHT22;6448;48.916;8.990;2022-10-03T03:54:52;17.80;62.70
12769;DHT22;6448;48.916;8.990;2022-10-03T03:56:09;17.80;62.70
12769;DHT22;6448;48.916;8.990;2022-10-03T03:57:46;17.80;62.70
12769;DHT22;6448;48.916;8.990;2022-10-03T03:59:06;17.80;62.70
12769;DHT22;6448;48.916;8.990;2022-10-03T04:00:16;17.70;62.50
12769;DHT22;6448;48.916;8.990;2022-10-03T04:01:38;17.80;62.40
12769;DHT22;6448;48.916;8.990;2022-10-03T04:03:03;18.00;62.40
12769;DHT22;6448;48.916;8.990;2022-10-03T04:04:34;17.90;62.50
12769;DHT22;6448;48.916;8.990;2022-10-03T04:05:59;17.80;62.50
12769;DHT22;6448;48.916;8.990;2022-10-03T04:07:20;17.80;62.60
12769;DHT22;6448;48.916;8.990;2022-10-03T04:08:59;17.80;62.60
12769;DHT22;6448;48.916;8.990;2022-10-03T04:10:14;17.70;62.60
12769;DHT22;6448;48.916;8.990;2022-10-03T04:11:32;17.80;62.60
12769;DHT22;6448;48.916;8.990;2022-10-03T04:14:40;17.80;62.80
12769;DHT22;6448;48.916;8.990;2022-10-03T04:15:59;17.80;62.80
12769;DHT22;6448;48.916;8.990;2022-10-03T04:17:26;17.70;62.70
12769;DHT22;6448;48.916;8.990;2022-10-03T04:19:00;17.70;62.70
12769;DHT22;6448;48.916;8.990;2022-10-03T04:20:17;17.80;62.70
12769;DHT22;6448;48.916;8.990;2022-10-03T04:23:22;17.70;62.70
12769;DHT22;6448;48.916;8.990;2022-10-03T04:26:10;17.70;62.60
12769;DHT22;6448;48.916;8.990;2022-10-03T04:29:30;17.70;62.60
12769;DHT22;6448;48.916;8.990;2022-10-03T04:30:53;17.70;62.60
12769;DHT22;6448;48.916;8.990;2022-10-03T04:32:09;17.60;62.60
12769;DHT22;6448;48.916;8.990;2022-10-03T04:33:26;17.60;62.70
12769;DHT22;6448;48.916;8.990;2022-10-03T04:34:41;17.60;62.80
12769;DHT22;6448;48.916;8.990;2022-10-03T04:36:13;17.40;62.70
12769;DHT22;6448;48.916;8.990;2022-10-03T04:37:25;17.60;63.60
12769;DHT22;6448;48.916;8.990;2022-10-03T04:38:41;17.60;62.90
12769;DHT22;6448;48.916;8.990;2022-10-03T04:39:49;17.50;62.90
12769;DHT22;6448;48.916;8.990;2022-10-03T04:40:58;17.60;62.90
12769;DHT22;6448;48.916;8.990;2022-10-03T04:42:12;17.60;62.90
12769;DHT22;6448;48.916;8.990;2022-10-03T04:43:29;17.60;62.90
12769;DHT22;6448;48.916;8.990;2022-10-03T04:44:46;17.60;63.00
12769;DHT22;6448;48.916;8.990;2022-10-03T04:46:00;17.50;62.90
12769;DHT22;6448;48.916;8.990;2022-10-03T04:47:13;17.60;62.90
12769;DHT22;6448;48.916;8.990;2022-10-03T04:48:23;17.70;63.10
12769;DHT22;6448;48.916;8.990;2022-10-03T04:49:34;17.60;63.00
12769;DHT22;6448;48.916;8.990;2022-10-03T04:50:41;17.60;63.10
12769;DHT22;6448;48.916;8.990;2022-10-03T04:51:51;17.70;63.10
12769;DHT22;6448;48.916;8.990;2022-10-03T04:53:02;17.60;63.00
12769;DHT22;6448;48.916;8.990;2022-10-03T04:54:14;17.60;63.00
12769;DHT22;6448;48.916;8.990;2022-10-03T04:55:24;17.70;63.10
12769;DHT22;6448;48.916;8.990;2022-10-03T04:56:41;17.60;63.10
12769;DHT22;6448;48.916;8.990;2022-10-03T04:57:51;17.60;63.10
12769;DHT22;6448;48.916;8.990;2022-10-03T04:59:03;17.60;63.20
12769;DHT22;6448;48.916;8.990;2022-10-03T05:00:20;17.70;63.30
12769;DHT22;6448;48.916;8.990;2022-10-03T05:01:27;17.60;63.20
12769;DHT22;6448;48.916;8.990;2022-10-03T05:02:44;17.60;63.20
12769;DHT22;6448;48.916;8.990;2022-10-03T05:03:57;17.60;63.30
12769;DHT22;6448;48.916;8.990;2022-10-03T05:05:22;17.60;63.30
12769;DHT22;6448;48.916;8.990;2022-10-03T05:06:36;17.60;63.20
12769;DHT22;6448;48.916;8.990;2022-10-03T05:07:49;17.70;63.30
12769;DHT22;6448;48.916;8.990;2022-10-03T05:09:00;18.00;63.40
12769;DHT22;6448;48.916;8.990;2022-10-03T05:10:22;17.60;63.20
12769;DHT22;6448;48.916;8.990;2022-10-03T05:11:38;17.50;63.10
12769;DHT22;6448;48.916;8.990;2022-10-03T05:12:52;17.60;63.30
12769;DHT22;6448;48.916;8.990;2022-10-03T05:14:01;17.50;63.20
12769;DHT22;6448;48.916;8.990;2022-10-03T05:15:18;17.60;63.30
12769;DHT22;6448;48.916;8.990;2022-10-03T05:16:34;17.60;63.20
12769;DHT22;6448;48.916;8.990;2022-10-03T05:17:45;18.00;63.30
12769;DHT22;6448;48.916;8.990;2022-10-03T05:19:17;17.50;63.00
12769;DHT22;6448;48.916;8.990;2022-10-03T05:20:48;17.60;63.00
12769;DHT22;6448;48.916;8.990;2022-10-03T05:22:09;17.70;63.20
12769;DHT22;6448;48.916;8.990;2022-10-03T05:23:28;17.60;63.00
12769;DHT22;6448;48.916;8.990;2022-10-03T05:24:44;17.70;63.10
12769;DHT22;6448;48.916;8.990;2022-10-03T05:26:04;17.60;63.00
12769;DHT22;6448;48.916;8.990;2022-10-03T05:27:18;17.80;63.20
12769;DHT22;6448;48.916;8.990;2022-10-03T05:28:36;17.60;63.00
12769;DHT22;6448;48.916;8.990;2022-10-03T05:29:49;17.60;63.10
12769;DHT22;6448;48.916;8.990;2022-10-03T05:31:05;17.80;63.20
12769;DHT22;6448;48.916;8.990;2022-10-03T05:32:24;17.50;62.90
12769;DHT22;6448;48.916;8.990;2022-10-03T05:33:38;17.60;63.00
12769;DHT22;6448;48.916;8.990;2022-10-03T05:35:22;17.60;63.10
12769;DHT22;6448;48.916;8.990;2022-10-03T05:36:31;17.60;63.10
12769;DHT22;6448;48.916;8.990;2022-10-03T05:37:46;17.60;63.20
12769;DHT22;6448;48.916;8.990;2022-10-03T05:39:22;17.60;63.30
12769;DHT22;6448;48.916;8.990;2022-10-03T05:40:26;17.60;63.30
12769;DHT22;6448;48.916;8.990;2022-10-03T05:41:30;17.60;63.30
12769;DHT22;6448;48.916;8.990;2022-10-03T05:42:44;17.80;63.40
12769;DHT22;6448;48.916;8.990;2022-10-03T05:44:02;17.60;63.30
12769;DHT22;6448;48.916;8.990;2022-10-03T05:45:14;17.70;63.40
12769;DHT22;6448;48.916;8.990;2022-10-03T05:46:40;17.90;63.50
12769;DHT22;6448;48.916;8.990;2022-10-03T05:47:51;17.60;63.30
12769;DHT22;6448;48.916;8.990;2022-10-03T05:49:21;17.60;63.20
12769;DHT22;6448;48.916;8.990;2022-10-03T05:52:19;17.70;63.20
12769;DHT22;6448;48.916;8.990;2022-10-03T05:53:51;17.60;63.10
12769;DHT22;6448;48.916;8.990;2022-10-03T05:55:18;17.70;63.20
12769;DHT22;6448;48.916;8.990;2022-10-03T06:01:43;17.60;62.90
12769;DHT22;6448;48.916;8.990;2022-10-03T06:10:24;17.60;62.90
12769;DHT22;6448;48.916;8.990;2022-10-03T06:12:01;17.60;63.00
12769;DHT22;6448;48.916;8.990;2022-10-03T06:13:19;17.60;63.00
12769;DHT22;6448;48.916;8.990;2022-10-03T06:15:05;17.60;63.00
12769;DHT22;6448;48.916;8.990;2022-10-03T06:16:27;17.60;63.00
12769;DHT22;6448;48.916;8.990;2022-10-03T06:18:12;17.50;62.90
12769;DHT22;6448;48.916;8.990;2022-10-03T06:21:30;17.60;63.00
12769;DHT22;6448;48.916;8.990;2022-10-03T06:25:02;17.60;63.00
12769;DHT22;6448;48.916;8.990;2022-10-03T06:26:54;17.60;63.00
12769;DHT22;6448;48.916;8.990;2022-10-03T06:28:36;17.50;63.00
12769;DHT22;6448;48.916;8.990;2022-10-03T06:36:54;17.50;63.00
12769;DHT22;6448;48.916;8.990;2022-10-03T06:49:37;17.60;63.30
12769;DHT22;6448;48.916;8.990;2022-10-03T06:51:30;17.50;63.30
12769;DHT22;6448;48.916;8.990;2022-10-03T06:55:38;17.70;63.50
12769;DHT22;6448;48.916;8.990;2022-10-03T07:02:16;17.60;63.50
12769;DHT22;6448;48.916;8.990;2022-10-03T07:04:45;17.40;63.30
12769;DHT22;6448;48.916;8.990;2022-10-03T07:06:37;17.50;63.90
12769;DHT22;6448;48.916;8.990;2022-10-03T07:19:52;17.50;63.60
12769;DHT22;6448;48.916;8.990;2022-10-03T07:27:50;17.30;63.00
12769;DHT22;6448;48.916;8.990;2022-10-03T07:29:25;17.40;63.00
12769;DHT22;6448;48.916;8.990;2022-10-03T07:31:02;17.60;63.20
12769;DHT22;6448;48.916;8.990;2022-10-03T07:33:15;17.40;63.10
12769;DHT22;6448;48.916;8.990;2022-10-03T07:37:28;17.40;63.20
12769;DHT22;6448;48.916;8.990;2022-10-03T07:39:31;17.30;63.30
12769;DHT22;6448;48.916;8.990;2022-10-03T07:41:14;17.50;63.50
12769;DHT22;6448;48.916;8.990;2022-10-03T07:46:46;17.50;63.10
12769;DHT22;6448;48.916;8.990;2022-10-03T07:48:19;17.40;63.30
12769;DHT22;6448;48.916;8.990;2022-10-03T07:51:21;17.40;63.30
12769;DHT22;6448;48.916;8.990;2022-10-03T07:53:04;17.40;63.80
12769;DHT22;6448;48.916;8.990;2022-10-03T07:54:41;17.40;62.90
12769;DHT22;6448;48.916;8.990;2022-10-03T07:56:02;17.40;63.00
12769;DHT22;6448;48.916;8.990;2022-10-03T07:57:44;17.40;63.10
12769;DHT22;6448;48.916;8.990;2022-10-03T07:59:40;17.40;63.30
12769;DHT22;6448;48.916;8.990;2022-10-03T08:03:07;17.40;63.30
12769;DHT22;6448;48.916;8.990;2022-10-03T08:05:10;17.40;63.30
12769;DHT22;6448;48.916;8.990;2022-10-03T08:06:31;17.40;63.10
12769;DHT22;6448;48.916;8.990;2022-10-03T08:08:27;17.40;63.00
12769;DHT22;6448;48.916;8.990;2022-10-03T08:10:02;17.50;62.90
12769;DHT22;6448;48.916;8.990;2022-10-03T08:11:32;17.40;62.60
12769;DHT22;6448;48.916;8.990;2022-10-03T08:14:56;17.40;62.60
12769;DHT22;6448;48.916;8.990;2022-10-03T08:18:05;17.40;62.80
12769;DHT22;6448;48.916;8.990;2022-10-03T08:21:20;17.30;62.60
12769;DHT22;6448;48.916;8.990;2022-10-03T08:22:50;17.30;62.50
12769;DHT22;6448;48.916;8.990;2022-10-03T08:26:32;17.40;62.60
12769;DHT22;6448;48.916;8.990;2022-10-03T08:28:23;17.50;62.80
12769;DHT22;6448;48.916;8.990;2022-10-03T08:32:27;17.40;62.70
12769;DHT22;6448;48.916;8.990;2022-10-03T08:42:19;17.50;62.50
12769;DHT22;6448;48.916;8.990;2022-10-03T08:53:30;17.50;61.50
12769;DHT22;6448;48.916;8.990;2022-10-03T08:55:10;17.50;61.90
12769;DHT22;6448;48.916;8.990;2022-10-03T09:16:01;17.60;59.50
12769;DHT22;6448;48.916;8.990;2022-10-03T09:23:12;17.60;59.60
12769;DHT22;6448;48.916;8.990;2022-10-03T09:25:38;17.60;59.80
12769;DHT22;6448;48.916;8.990;2022-10-03T09:27:34;17.60;60.00
12769;DHT22;6448;48.916;8.990;2022-10-03T09:29:45;17.60;60.20
12769;DHT22;6448;48.916;8.990;2022-10-03T09:31:32;17.70;60.50
12769;DHT22;6448;48.916;8.990;2022-10-03T09:44:11;17.80;59.90
12769;DHT22;6448;48.916;8.990;2022-10-03T09:46:32;17.90;60.10
12769;DHT22;6448;48.916;8.990;2022-10-03T09:57:45;18.00;60.10
12769;DHT22;6448;48.916;8.990;2022-10-03T10:01:40;18.10;59.80
12769;DHT22;6448;48.916;8.990;2022-10-03T10:24:03;18.30;58.90
12769;DHT22;6448;48.916;8.990;2022-10-03T10:36:02;18.50;58.50
12769;DHT22;6448;48.916;8.990;2022-10-03T11:10:46;18.70;56.70
12769;DHT22;6448;48.916;8.990;2022-10-03T16:52:36;20.80;51.10
12769;DHT22;6448;48.916;8.990;2022-10-03T17:06:49;20.70;51.40
12769;DHT22;6448;48.916;8.990;2022-10-03T17:16:00;20.60;51.60
12769;DHT22;6448;48.916;8.990;2022-10-03T17:27:00;20.30;51.80
12769;DHT22;6448;48.916;8.990;2022-10-03T17:31:21;20.40;52.00
12769;DHT22;6448;48.916;8.990;2022-10-03T17:42:50;20.00;52.00
12769;DHT22;6448;48.916;8.990;2022-10-03T17:44:13;20.00;52.10
12769;DHT22;6448;48.916;8.990;2022-10-03T17:46:16;19.90;52.10
12769;DHT22;6448;48.916;8.990;2022-10-03T17:48:03;19.90;52.30
12769;DHT22;6448;48.916;8.990;2022-10-03T17:49:44;19.90;52.10
12769;DHT22;6448;48.916;8.990;2022-10-03T17:52:58;19.80;52.00
12769;DHT22;6448;48.916;8.990;2022-10-03T17:53:41;19.80;51.90
12769;DHT22;6448;48.916;8.990;2022-10-03T17:54:52;19.70;51.70
12769;DHT22;6448;48.916;8.990;2022-10-03T17:56:03;19.70;51.70
12769;DHT22;6448;48.916;8.990;2022-10-03T17:57:16;19.70;51.80
12769;DHT22;6448;48.916;8.990;2022-10-03T17:58:25;19.90;51.80
12769;DHT22;6448;48.916;8.990;2022-10-03T17:59:42;19.60;51.60
12769;DHT22;6448;48.916;8.990;2022-10-03T18:01:14;19.70;51.60
12769;DHT22;6448;48.916;8.990;2022-10-03T18:02:29;19.60;51.60
12769;DHT22;6448;48.916;8.990;2022-10-03T18:03:40;19.50;51.60
12769;DHT22;6448;48.916;8.990;2022-10-03T18:04:51;19.50;51.70
12769;DHT22;6448;48.916;8.990;2022-10-03T18:05:58;19.50;51.80
12769;DHT22;6448;48.916;8.990;2022-10-03T18:07:10;19.40;51.90
12769;DHT22;6448;48.916;8.990;2022-10-03T18:08:18;19.40;52.00
12769;DHT22;6448;48.916;8.990;2022-10-03T18:09:28;19.40;52.00
12769;DHT22;6448;48.916;8.990;2022-10-03T18:10:33;19.40;52.10
12769;DHT22;6448;48.916;8.990;2022-10-03T18:11:40;19.30;52.10
12769;DHT22;6448;48.916;8.990;2022-10-03T18:13:00;19.50;52.20
12769;DHT22;6448;48.916;8.990;2022-10-03T18:14:20;19.60;52.40
12769;DHT22;6448;48.916;8.990;2022-10-03T18:19:04;19.30;52.20
12769;DHT22;6448;48.916;8.990;2022-10-03T18:20:22;19.30;52.90
12769;DHT22;6448;48.916;8.990;2022-10-03T18:21:44;19.20;52.30
12769;DHT22;6448;48.916;8.990;2022-10-03T18:22:50;19.20;52.10
12769;DHT22;6448;48.916;8.990;2022-10-03T18:24:12;19.20;52.10
12769;DHT22;6448;48.916;8.990;2022-10-03T18:25:22;19.20;52.10
12769;DHT22;6448;48.916;8.990;2022-10-03T18:26:52;19.10;52.10
12769;DHT22;6448;48.916;8.990;2022-10-03T18:28:10;19.10;52.10
12769;DHT22;6448;48.916;8.990;2022-10-03T18:29:25;19.40;52.20
12769;DHT22;6448;48.916;8.990;2022-10-03T18:30:32;19.10;52.20
12769;DHT22;6448;48.916;8.990;2022-10-03T18:31:40;19.10;52.10
12769;DHT22;6448;48.916;8.990;2022-10-03T18:32:46;19.10;52.10
12769;DHT22;6448;48.916;8.990;2022-10-03T18:33:53;19.10;52.10
12769;DHT22;6448;48.916;8.990;2022-10-03T18:35:06;19.10;52.10
12769;DHT22;6448;48.916;8.990;2022-10-03T18:36:16;19.00;52.00
12769;DHT22;6448;48.916;8.990;2022-10-03T18:39:02;19.00;51.90
12769;DHT22;6448;48.916;8.990;2022-10-03T18:40:16;18.90;51.90
12769;DHT22;6448;48.916;8.990;2022-10-03T18:41:30;19.00;51.90
12769;DHT22;6448;48.916;8.990;2022-10-03T18:42:33;18.90;52.00
12769;DHT22;6448;48.916;8.990;2022-10-03T18:43:37;18.90;52.00
12769;DHT22;6448;48.916;8.990;2022-10-03T18:44:44;19.00;52.20
12769;DHT22;6448;48.916;8.990;2022-10-03T18:45:46;18.90;52.70
12769;DHT22;6448;48.916;8.990;2022-10-03T18:47:00;18.80;52.20
12769;DHT22;6448;48.916;8.990;2022-10-03T18:48:12;18.80;52.30
12769;DHT22;6448;48.916;8.990;2022-10-03T18:49:23;18.80;52.30
12769;DHT22;6448;48.916;8.990;2022-10-03T18:50:29;18.80;52.10
12769;DHT22;6448;48.916;8.990;2022-10-03T18:51:35;18.80;52.10
12769;DHT22;6448;48.916;8.990;2022-10-03T18:52:46;18.80;52.20
12769;DHT22;6448;48.916;8.990;2022-10-03T18:53:54;18.70;52.20
12769;DHT22;6448;48.916;8.990;2022-10-03T18:55:03;18.90;52.30
12769;DHT22;6448;48.916;8.990;2022-10-03T18:56:09;18.80;52.30
12769;DHT22;6448;48.916;8.990;2022-10-03T18:57:20;18.50;52.20
12769;DHT22;6448;48.916;8.990;2022-10-03T18:58:24;18.60;52.30
12769;DHT22;6448;48.916;8.990;2022-10-03T18:59:33;18.70;52.40
12769;DHT22;6448;48.916;8.990;2022-10-03T19:00:39;18.80;52.50
12769;DHT22;6448;48.916;8.990;2022-10-03T19:01:49;18.70;52.40
12769;DHT22;6448;48.916;8.990;2022-10-03T19:02:55;18.70;52.40
12769;DHT22;6448;48.916;8.990;2022-10-03T19:04:03;18.70;52.40
12769;DHT22;6448;48.916;8.990;2022-10-03T19:05:11;18.60;52.30
12769;DHT22;6448;48.916;8.990;2022-10-03T19:06:18;18.60;52.40
12769;DHT22;6448;48.916;8.990;2022-10-03T19:07:24;18.60;52.30
12769;DHT22;6448;48.916;8.990;2022-10-03T19:08:35;18.60;52.30
12769;DHT22;6448;48.916;8.990;2022-10-03T19:09:53;18.60;52.30
12769;DHT22;6448;48.916;8.990;2022-10-03T19:11:10;18.60;52.30
12769;DHT22;6448;48.916;8.990;2022-10-03T19:12:20;18.50;52.20
12769;DHT22;6448;48.916;8.990;2022-10-03T19:13:28;18.50;52.20